sensor_id;sensor_type;location;lat;lon;timestamp;pressure;altitude;pressure_sealevel;temperature;humidity
8641;BME280;4358;42.100;25.222;2024-03-29T00:00:42;99740.75;;;13.30;100.00
8641;BME280;4358;42.100;25.222;2024-03-29T00:03:09;99731.09;;;13.18;100.00
8641;BME280;4358;42.100;25.222;2024-03-29T00:05:37;99726.72;;;13.06;100.00
8641;BME280;4358;42.100;25.222;2024-03-29T00:08:04;99725.97;;;12.93;100.00
8641;BME280;4358;42.100;25.222;2024-03-29T00:10:30;99735.66;;;13.05;100.00
8641;BME280;4358;42.100;25.222;2024-03-29T00:12:56;99731.56;;;13.01;100.00
8641;BME280;4358;42.100;25.222;2024-03-29T00:15:21;99748.50;;;13.00;100.00
8641;BME280;4358;42.100;25.222;2024-03-29T00:17:47;99750.56;;;12.85;100.00
8641;BME280;4358;42.100;25.222;2024-03-29T00:20:13;99756.00;;;12.72;100.00
8641;BME280;4358;42.100;25.222;2024-03-29T00:22:40;99756.66;;;12.41;100.00
8641;BME280;4358;42.100;25.222;2024-03-29T00:25:07;99768.31;;;12.40;100.00
8641;BME280;4358;42.100;25.222;2024-03-29T00:27:33;99765.88;;;12.37;100.00
8641;BME280;4358;42.100;25.222;2024-03-29T00:29:58;99765.88;;;12.37;100.00
8641;BME280;4358;42.100;25.222;2024-03-29T00:32:25;99762.50;;;12.35;100.00
8641;BME280;4358;42.100;25.222;2024-03-29T00:34:52;99739.94;;;12.17;100.00
8641;BME280;4358;42.100;25.222;2024-03-29T00:37:18;99758.00;;;12.36;100.00
8641;BME280;4358;42.100;25.222;2024-03-29T00:39:46;99754.63;;;12.34;100.00
8641;BME280;4358;42.100;25.222;2024-03-29T00:42:12;99751.09;;;12.33;100.00
8641;BME280;4358;42.100;25.222;2024-03-29T00:44:38;99752.31;;;12.29;100.00
8641;BME280;4358;42.100;25.222;2024-03-29T00:47:03;99754.59;;;12.22;100.00
8641;BME280;4358;42.100;25.222;2024-03-29T00:49:29;99738.22;;;12.16;100.00
8641;BME280;4358;42.100;25.222;2024-03-29T00:51:55;99743.50;;;12.05;100.00
8641;BME280;4358;42.100;25.222;2024-03-29T00:54:21;99744.81;;;11.99;100.00
8641;BME280;4358;42.100;25.222;2024-03-29T00:56:49;99752.59;;;12.02;100.00
8641;BME280;4358;42.100;25.222;2024-03-29T00:59:15;99757.16;;;12.00;100.00
8641;BME280;4358;42.100;25.222;2024-03-29T01:01:40;99743.47;;;11.94;100.00
8641;BME280;4358;42.100;25.222;2024-03-29T01:04:06;99752.28;;;11.94;100.00
8641;BME280;4358;42.100;25.222;2024-03-29T01:06:32;99752.53;;;11.91;100.00
8641;BME280;4358;42.100;25.222;2024-03-29T01:08:58;99759.16;;;11.85;100.00
8641;BME280;4358;42.100;25.222;2024-03-29T01:11:23;99764.94;;;11.79;100.00
8641;BME280;4358;42.100;25.222;2024-03-29T01:13:51;99758.66;;;11.68;100.00
8641;BME280;4358;42.100;25.222;2024-03-29T01:16:16;99765.59;;;11.70;100.00
8641;BME280;4358;42.100;25.222;2024-03-29T01:18:42;99768.03;;;11.73;100.00
8641;BME280;4358;42.100;25.222;2024-03-29T01:21:08;99768.97;;;11.72;100.00
8641;BME280;4358;42.100;25.222;2024-03-29T01:23:34;99770.03;;;11.46;100.00
8641;BME280;4358;42.100;25.222;2024-03-29T01:25:59;99769.28;;;11.44;100.00
8641;BME280;4358;42.100;25.222;2024-03-29T01:28:25;99774.59;;;11.44;100.00
8641;BME280;4358;42.100;25.222;2024-03-29T01:30:53;99772.22;;;11.52;100.00
8641;BME280;4358;42.100;25.222;2024-03-29T01:33:19;99766.41;;;11.47;100.00
8641;BME280;4358;42.100;25.222;2024-03-29T01:35:45;99779.03;;;11.56;100.00
8641;BME280;4358;42.100;25.222;2024-03-29T01:38:11;99776.03;;;11.61;100.00
8641;BME280;4358;42.100;25.222;2024-03-29T01:40:36;99766.47;;;11.58;100.00
8641;BME280;4358;42.100;25.222;2024-03-29T01:43:03;99766.91;;;11.52;100.00
8641;BME280;4358;42.100;25.222;2024-03-29T01:45:29;99765.75;;;11.56;100.00
8641;BME280;4358;42.100;25.222;2024-03-29T01:47:58;99767.38;;;11.46;100.00
8641;BME280;4358;42.100;25.222;2024-03-29T01:50:25;99768.53;;;11.42;100.00
8641;BME280;4358;42.100;25.222;2024-03-29T01:52:52;99779.50;;;11.37;100.00
8641;BME280;4358;42.100;25.222;2024-03-29T01:55:19;99774.44;;;11.34;100.00
8641;BME280;4358;42.100;25.222;2024-03-29T01:57:46;99780.81;;;11.32;100.00
8641;BME280;4358;42.100;25.222;2024-03-29T02:00:13;99793.38;;;11.30;100.00
8641;BME280;4358;42.100;25.222;2024-03-29T02:02:40;99801.53;;;11.27;100.00
8641;BME280;4358;42.100;25.222;2024-03-29T02:05:09;99797.44;;;10.85;100.00
8641;BME280;4358;42.100;25.222;2024-03-29T02:07:37;99806.25;;;10.60;100.00
8641;BME280;4358;42.100;25.222;2024-03-29T02:10:05;99811.88;;;10.68;100.00
8641;BME280;4358;42.100;25.222;2024-03-29T02:12:33;99805.31;;;10.61;100.00
8641;BME280;4358;42.100;25.222;2024-03-29T02:15:00;99811.34;;;10.50;100.00
8641;BME280;4358;42.100;25.222;2024-03-29T02:17:28;99820.53;;;10.32;100.00
8641;BME280;4358;42.100;25.222;2024-03-29T02:19:54;99818.66;;;10.34;100.00
8641;BME280;4358;42.100;25.222;2024-03-29T02:22:24;99813.34;;;10.34;100.00
8641;BME280;4358;42.100;25.222;2024-03-29T02:24:52;99825.78;;;10.46;100.00
8641;BME280;4358;42.100;25.222;2024-03-29T02:27:20;99837.22;;;10.47;100.00
8641;BME280;4358;42.100;25.222;2024-03-29T02:29:50;99833.53;;;10.49;100.00
8641;BME280;4358;42.100;25.222;2024-03-29T02:32:16;99839.28;;;10.56;100.00
8641;BME280;4358;42.100;25.222;2024-03-29T02:34:43;99842.47;;;10.61;100.00
8641;BME280;4358;42.100;25.222;2024-03-29T02:37:10;99852.50;;;10.31;100.00
8641;BME280;4358;42.100;25.222;2024-03-29T02:39:37;99853.63;;;10.27;100.00
8641;BME280;4358;42.100;25.222;2024-03-29T02:42:06;99856.41;;;10.11;100.00
8641;BME280;4358;42.100;25.222;2024-03-29T02:44:33;99868.78;;;9.57;100.00
8641;BME280;4358;42.100;25.222;2024-03-29T02:46:59;99878.63;;;9.55;100.00
8641;BME280;4358;42.100;25.222;2024-03-29T02:49:26;99871.25;;;9.46;100.00
8641;BME280;4358;42.100;25.222;2024-03-29T02:51:52;99876.09;;;9.39;100.00
8641;BME280;4358;42.100;25.222;2024-03-29T02:54:19;99875.06;;;9.13;100.00
8641;BME280;4358;42.100;25.222;2024-03-29T02:56:45;99873.63;;;8.93;100.00
8641;BME280;4358;42.100;25.222;2024-03-29T02:59:13;99878.63;;;8.98;100.00
8641;BME280;4358;42.100;25.222;2024-03-29T03:01:39;99886.66;;;9.11;100.00
8641;BME280;4358;42.100;25.222;2024-03-29T03:04:06;99893.22;;;9.19;100.00
8641;BME280;4358;42.100;25.222;2024-03-29T03:06:32;99893.31;;;9.18;100.00
8641;BME280;4358;42.100;25.222;2024-03-29T03:08:59;99906.47;;;9.19;100.00
8641;BME280;4358;42.100;25.222;2024-03-29T03:11:43;99902.56;;;9.11;100.00
8641;BME280;4358;42.100;25.222;2024-03-29T03:14:10;99891.97;;;9.11;100.00
8641;BME280;4358;42.100;25.222;2024-03-29T03:16:38;99908.34;;;9.17;100.00
8641;BME280;4358;42.100;25.222;2024-03-29T03:19:04;99907.59;;;9.15;100.00
8641;BME280;4358;42.100;25.222;2024-03-29T03:21:30;99910.13;;;9.17;100.00
8641;BME280;4358;42.100;25.222;2024-03-29T03:23:57;99910.31;;;9.00;100.00
8641;BME280;4358;42.100;25.222;2024-03-29T03:26:23;99908.69;;;8.83;100.00
8641;BME280;4358;42.100;25.222;2024-03-29T03:28:50;99916.59;;;8.69;100.00
8641;BME280;4358;42.100;25.222;2024-03-29T03:31:15;99907.69;;;8.70;100.00
8641;BME280;4358;42.100;25.222;2024-03-29T03:33:43;99918.63;;;8.64;100.00
8641;BME280;4358;42.100;25.222;2024-03-29T03:36:09;99927.34;;;8.66;100.00
8641;BME280;4358;42.100;25.222;2024-03-29T03:38:36;99937.91;;;8.66;100.00
8641;BME280;4358;42.100;25.222;2024-03-29T03:41:04;99936.97;;;8.67;100.00
8641;BME280;4358;42.100;25.222;2024-03-29T03:43:30;99938.63;;;8.54;100.00
8641;BME280;4358;42.100;25.222;2024-03-29T03:46:00;99946.03;;;8.63;100.00
8641;BME280;4358;42.100;25.222;2024-03-29T03:48:27;99950.38;;;8.64;100.00
8641;BME280;4358;42.100;25.222;2024-03-29T03:50:55;99950.56;;;8.61;100.00
8641;BME280;4358;42.100;25.222;2024-03-29T03:53:22;99967.63;;;8.55;100.00
8641;BME280;4358;42.100;25.222;2024-03-29T03:55:48;99966.66;;;8.42;100.00
8641;BME280;4358;42.100;25.222;2024-03-29T03:58:15;99959.91;;;8.36;100.00
8641;BME280;4358;42.100;25.222;2024-03-29T04:00:41;99973.63;;;8.43;100.00
8641;BME280;4358;42.100;25.222;2024-03-29T04:03:07;99982.06;;;8.49;100.00
8641;BME280;4358;42.100;25.222;2024-03-29T04:05:36;99978.75;;;8.46;100.00
8641;BME280;4358;42.100;25.222;2024-03-29T04:08:05;99983.38;;;8.42;100.00
8641;BME280;4358;42.100;25.222;2024-03-29T04:10:31;99990.88;;;8.34;100.00
8641;BME280;4358;42.100;25.222;2024-03-29T04:12:58;99993.44;;;8.36;100.00
8641;BME280;4358;42.100;25.222;2024-03-29T04:15:24;99998.03;;;8.32;100.00
8641;BME280;4358;42.100;25.222;2024-03-29T04:17:50;99992.59;;;8.35;100.00
8641;BME280;4358;42.100;25.222;2024-03-29T04:20:16;99996.34;;;8.31;100.00
8641;BME280;4358;42.100;25.222;2024-03-29T04:22:43;100000.78;;;8.31;100.00
8641;BME280;4358;42.100;25.222;2024-03-29T04:25:12;100012.38;;;8.44;100.00
8641;BME280;4358;42.100;25.222;2024-03-29T04:27:40;100025.50;;;8.45;100.00
8641;BME280;4358;42.100;25.222;2024-03-29T04:30:07;100021.19;;;8.27;100.00
8641;BME280;4358;42.100;25.222;2024-03-29T04:32:34;100014.25;;;8.42;100.00
8641;BME280;4358;42.100;25.222;2024-03-29T04:35:00;100006.66;;;8.36;100.00
8641;BME280;4358;42.100;25.222;2024-03-29T04:37:27;100005.22;;;8.30;100.00
8641;BME280;4358;42.100;25.222;2024-03-29T04:39:54;99995.50;;;8.31;100.00
8641;BME280;4358;42.100;25.222;2024-03-29T04:42:22;99997.44;;;8.43;100.00
8641;BME280;4358;42.100;25.222;2024-03-29T04:44:49;99994.88;;;8.57;100.00
8641;BME280;4358;42.100;25.222;2024-03-29T04:47:16;100002.25;;;8.82;100.00
8641;BME280;4358;42.100;25.222;2024-03-29T04:49:43;100002.84;;;9.01;100.00
8641;BME280;4358;42.100;25.222;2024-03-29T04:52:10;100025.19;;;9.11;100.00
8641;BME280;4358;42.100;25.222;2024-03-29T04:54:37;100024.84;;;9.17;100.00
8641;BME280;4358;42.100;25.222;2024-03-29T04:57:04;100020.91;;;9.39;100.00
8641;BME280;4358;42.100;25.222;2024-03-29T04:59:33;100037.59;;;9.69;100.00
8641;BME280;4358;42.100;25.222;2024-03-29T05:02:00;100054.63;;;9.79;100.00
8641;BME280;4358;42.100;25.222;2024-03-29T05:04:28;100055.59;;;9.78;100.00
8641;BME280;4358;42.100;25.222;2024-03-29T05:06:55;100068.78;;;9.94;100.00
8641;BME280;4358;42.100;25.222;2024-03-29T05:09:23;100070.56;;;10.07;100.00
8641;BME280;4358;42.100;25.222;2024-03-29T05:11:50;100064.22;;;10.10;100.00
8641;BME280;4358;42.100;25.222;2024-03-29T05:14:18;100065.81;;;10.27;100.00
8641;BME280;4358;42.100;25.222;2024-03-29T05:16:47;100071.31;;;10.38;100.00
8641;BME280;4358;42.100;25.222;2024-03-29T05:19:14;100086.38;;;10.37;100.00
8641;BME280;4358;42.100;25.222;2024-03-29T05:21:42;100075.31;;;10.31;100.00
8641;BME280;4358;42.100;25.222;2024-03-29T05:24:09;100060.22;;;10.45;100.00
8641;BME280;4358;42.100;25.222;2024-03-29T05:26:36;100071.34;;;10.65;100.00
8641;BME280;4358;42.100;25.222;2024-03-29T05:29:03;100084.31;;;10.69;100.00
8641;BME280;4358;42.100;25.222;2024-03-29T05:31:30;100095.06;;;10.68;100.00
8641;BME280;4358;42.100;25.222;2024-03-29T05:33:58;100090.56;;;10.82;100.00
8641;BME280;4358;42.100;25.222;2024-03-29T05:36:27;100107.19;;;10.98;100.00
8641;BME280;4358;42.100;25.222;2024-03-29T05:38:54;100116.34;;;11.07;100.00
8641;BME280;4358;42.100;25.222;2024-03-29T05:41:21;100108.09;;;11.12;100.00
8641;BME280;4358;42.100;25.222;2024-03-29T05:43:47;100129.25;;;11.26;100.00
8641;BME280;4358;42.100;25.222;2024-03-29T05:46:15;100128.28;;;11.14;100.00
8641;BME280;4358;42.100;25.222;2024-03-29T05:48:43;100122.75;;;11.17;100.00
8641;BME280;4358;42.100;25.222;2024-03-29T05:51:11;100133.31;;;11.31;100.00
8641;BME280;4358;42.100;25.222;2024-03-29T05:53:37;100137.94;;;11.42;100.00
8641;BME280;4358;42.100;25.222;2024-03-29T05:56:05;100137.56;;;11.61;100.00
8641;BME280;4358;42.100;25.222;2024-03-29T05:58:33;100147.38;;;11.73;100.00
8641;BME280;4358;42.100;25.222;2024-03-29T06:01:00;100151.25;;;11.81;100.00
8641;BME280;4358;42.100;25.222;2024-03-29T06:03:27;100146.13;;;12.04;100.00
8641;BME280;4358;42.100;25.222;2024-03-29T06:05:53;100153.59;;;12.24;100.00
8641;BME280;4358;42.100;25.222;2024-03-29T06:08:22;100151.13;;;12.46;100.00
8641;BME280;4358;42.100;25.222;2024-03-29T06:10:51;100148.72;;;12.67;100.00
8641;BME280;4358;42.100;25.222;2024-03-29T06:13:19;100149.56;;;12.80;100.00
8641;BME280;4358;42.100;25.222;2024-03-29T06:16:14;100164.72;;;13.16;100.00
8641;BME280;4358;42.100;25.222;2024-03-29T06:18:59;100160.03;;;13.43;100.00
8641;BME280;4358;42.100;25.222;2024-03-29T06:21:25;100162.78;;;13.66;100.00
8641;BME280;4358;42.100;25.222;2024-03-29T06:23:53;100157.75;;;13.85;100.00
8641;BME280;4358;42.100;25.222;2024-03-29T06:26:20;100156.59;;;14.11;100.00
8641;BME280;4358;42.100;25.222;2024-03-29T06:28:47;100163.34;;;14.39;100.00
8641;BME280;4358;42.100;25.222;2024-03-29T06:31:14;100166.00;;;14.61;100.00
8641;BME280;4358;42.100;25.222;2024-03-29T06:33:41;100170.00;;;14.78;100.00
8641;BME280;4358;42.100;25.222;2024-03-29T06:36:08;100173.25;;;14.93;100.00
8641;BME280;4358;42.100;25.222;2024-03-29T06:38:34;100172.25;;;15.05;100.00
8641;BME280;4358;42.100;25.222;2024-03-29T06:41:03;100177.31;;;15.19;100.00
8641;BME280;4358;42.100;25.222;2024-03-29T06:43:29;100183.25;;;15.34;100.00
8641;BME280;4358;42.100;25.222;2024-03-29T06:45:56;100187.59;;;15.46;100.00
8641;BME280;4358;42.100;25.222;2024-03-29T06:48:24;100179.06;;;15.63;100.00
8641;BME280;4358;42.100;25.222;2024-03-29T06:50:51;100183.13;;;15.78;100.00
8641;BME280;4358;42.100;25.222;2024-03-29T06:53:18;100182.09;;;15.90;100.00
8641;BME280;4358;42.100;25.222;2024-03-29T06:55:45;100185.28;;;16.05;100.00
8641;BME280;4358;42.100;25.222;2024-03-29T06:58:15;100193.31;;;16.26;100.00
8641;BME280;4358;42.100;25.222;2024-03-29T07:00:45;100198.91;;;16.43;100.00
8641;BME280;4358;42.100;25.222;2024-03-29T07:03:11;100191.38;;;16.58;100.00
8641;BME280;4358;42.100;25.222;2024-03-29T07:05:38;100197.22;;;16.63;100.00
8641;BME280;4358;42.100;25.222;2024-03-29T07:08:05;100198.44;;;16.80;100.00
8641;BME280;4358;42.100;25.222;2024-03-29T07:10:32;100193.97;;;17.00;100.00
8641;BME280;4358;42.100;25.222;2024-03-29T07:13:00;100195.44;;;17.23;97.49
8641;BME280;4358;42.100;25.222;2024-03-29T07:15:28;100204.50;;;17.41;94.51
8641;BME280;4358;42.100;25.222;2024-03-29T07:17:55;100205.69;;;17.58;94.36
8641;BME280;4358;42.100;25.222;2024-03-29T07:20:24;100197.94;;;17.84;93.83
8641;BME280;4358;42.100;25.222;2024-03-29T07:22:52;100209.81;;;18.00;93.43
8641;BME280;4358;42.100;25.222;2024-03-29T07:25:19;100211.63;;;18.19;92.83
8641;BME280;4358;42.100;25.222;2024-03-29T07:27:46;100213.84;;;18.33;90.58
8641;BME280;4358;42.100;25.222;2024-03-29T07:30:15;100215.25;;;18.56;91.17
8641;BME280;4358;42.100;25.222;2024-03-29T07:32:44;100218.84;;;18.75;86.63
8641;BME280;4358;42.100;25.222;2024-03-29T07:35:10;100212.00;;;18.90;88.07
8641;BME280;4358;42.100;25.222;2024-03-29T07:37:38;100216.19;;;19.02;85.40
8641;BME280;4358;42.100;25.222;2024-03-29T07:40:07;100216.41;;;19.18;85.36
8641;BME280;4358;42.100;25.222;2024-03-29T07:42:33;100218.03;;;19.29;84.23
8641;BME280;4358;42.100;25.222;2024-03-29T07:45:01;100217.66;;;19.51;84.73
8641;BME280;4358;42.100;25.222;2024-03-29T07:47:28;100221.75;;;19.73;83.98
8641;BME280;4358;42.100;25.222;2024-03-29T07:49:56;100223.28;;;19.93;82.58
8641;BME280;4358;42.100;25.222;2024-03-29T07:52:23;100217.47;;;20.06;81.38
8641;BME280;4358;42.100;25.222;2024-03-29T07:54:50;100211.59;;;20.28;81.16
8641;BME280;4358;42.100;25.222;2024-03-29T07:57:17;100213.75;;;20.42;79.45
8641;BME280;4358;42.100;25.222;2024-03-29T07:59:44;100214.28;;;20.46;80.07
8641;BME280;4358;42.100;25.222;2024-03-29T08:02:10;100218.72;;;20.55;77.98
8641;BME280;4358;42.100;25.222;2024-03-29T08:04:37;100220.47;;;20.64;76.99
8641;BME280;4358;42.100;25.222;2024-03-29T08:07:09;100224.22;;;20.71;78.00
8641;BME280;4358;42.100;25.222;2024-03-29T08:09:37;100229.00;;;20.77;76.94
8641;BME280;4358;42.100;25.222;2024-03-29T08:12:05;100225.03;;;20.97;78.31
8641;BME280;4358;42.100;25.222;2024-03-29T08:14:32;100224.81;;;21.17;76.01
8641;BME280;4358;42.100;25.222;2024-03-29T08:16:58;100228.38;;;21.25;76.29
8641;BME280;4358;42.100;25.222;2024-03-29T08:19:30;100219.31;;;21.42;74.04
8641;BME280;4358;42.100;25.222;2024-03-29T08:21:56;100212.81;;;21.61;74.40
8641;BME280;4358;42.100;25.222;2024-03-29T08:24:27;100226.16;;;21.79;73.89
8641;BME280;4358;42.100;25.222;2024-03-29T08:26:54;100226.69;;;21.82;71.97
8641;BME280;4358;42.100;25.222;2024-03-29T08:29:21;100207.41;;;21.77;72.48
8641;BME280;4358;42.100;25.222;2024-03-29T08:31:48;100215.19;;;21.80;72.22
8641;BME280;4358;42.100;25.222;2024-03-29T08:34:15;100218.22;;;21.93;72.46
8641;BME280;4358;42.100;25.222;2024-03-29T08:36:42;100216.59;;;22.01;70.97
8641;BME280;4358;42.100;25.222;2024-03-29T08:39:08;100210.84;;;22.04;71.61
8641;BME280;4358;42.100;25.222;2024-03-29T08:41:36;100206.44;;;22.27;68.47
8641;BME280;4358;42.100;25.222;2024-03-29T08:44:04;100196.78;;;22.40;64.28
8641;BME280;4358;42.100;25.222;2024-03-29T08:46:31;100206.25;;;22.53;63.72
8641;BME280;4358;42.100;25.222;2024-03-29T08:48:58;100210.13;;;22.74;62.73
8641;BME280;4358;42.100;25.222;2024-03-29T08:51:25;100206.16;;;22.93;61.31
8641;BME280;4358;42.100;25.222;2024-03-29T08:53:52;100202.00;;;23.13;61.13
8641;BME280;4358;42.100;25.222;2024-03-29T08:56:18;100207.56;;;23.20;60.93
8641;BME280;4358;42.100;25.222;2024-03-29T08:58:47;100201.81;;;23.23;57.32
8641;BME280;4358;42.100;25.222;2024-03-29T09:01:15;100209.56;;;23.26;56.43
8641;BME280;4358;42.100;25.222;2024-03-29T09:03:41;100208.13;;;23.46;56.60
8641;BME280;4358;42.100;25.222;2024-03-29T09:06:08;100212.84;;;23.52;54.09
8641;BME280;4358;42.100;25.222;2024-03-29T09:08:35;100219.28;;;23.51;52.99
8641;BME280;4358;42.100;25.222;2024-03-29T09:11:02;100209.75;;;23.55;50.61
8641;BME280;4358;42.100;25.222;2024-03-29T09:13:30;100206.72;;;23.58;50.06
8641;BME280;4358;42.100;25.222;2024-03-29T09:15:59;100201.31;;;23.58;49.49
8641;BME280;4358;42.100;25.222;2024-03-29T09:18:26;100197.81;;;23.73;49.26
8641;BME280;4358;42.100;25.222;2024-03-29T09:20:56;100202.03;;;23.98;48.37
8641;BME280;4358;42.100;25.222;2024-03-29T09:23:24;100196.47;;;24.14;48.91
8641;BME280;4358;42.100;25.222;2024-03-29T09:25:52;100194.03;;;24.27;46.33
8641;BME280;4358;42.100;25.222;2024-03-29T09:28:19;100192.03;;;24.21;46.33
8641;BME280;4358;42.100;25.222;2024-03-29T09:30:47;100191.03;;;24.37;45.71
8641;BME280;4358;42.100;25.222;2024-03-29T09:33:15;100191.16;;;24.43;44.95
8641;BME280;4358;42.100;25.222;2024-03-29T09:35:42;100187.22;;;24.61;44.83
8641;BME280;4358;42.100;25.222;2024-03-29T09:38:09;100182.06;;;24.66;43.82
8641;BME280;4358;42.100;25.222;2024-03-29T09:40:36;100182.63;;;24.76;43.58
8641;BME280;4358;42.100;25.222;2024-03-29T09:43:03;100170.19;;;24.67;42.67
8641;BME280;4358;42.100;25.222;2024-03-29T09:45:32;100162.53;;;24.85;43.43
8641;BME280;4358;42.100;25.222;2024-03-29T09:48:01;100163.47;;;24.92;42.59
8641;BME280;4358;42.100;25.222;2024-03-29T09:50:31;100161.81;;;24.91;41.91
8641;BME280;4358;42.100;25.222;2024-03-29T09:52:58;100155.03;;;24.87;42.05
8641;BME280;4358;42.100;25.222;2024-03-29T09:55:25;100163.69;;;24.91;40.77
8641;BME280;4358;42.100;25.222;2024-03-29T09:57:53;100169.16;;;24.97;40.42
8641;BME280;4358;42.100;25.222;2024-03-29T10:00:20;100152.16;;;24.88;41.38
8641;BME280;4358;42.100;25.222;2024-03-29T10:02:49;100132.84;;;24.83;41.38
8641;BME280;4358;42.100;25.222;2024-03-29T10:05:16;100139.84;;;25.07;40.71
8641;BME280;4358;42.100;25.222;2024-03-29T10:07:45;100136.28;;;25.21;40.48
8641;BME280;4358;42.100;25.222;2024-03-29T10:10:13;100146.25;;;25.36;39.33
8641;BME280;4358;42.100;25.222;2024-03-29T10:12:39;100142.09;;;25.40;40.29
8641;BME280;4358;42.100;25.222;2024-03-29T10:15:07;100134.47;;;25.50;39.34
8641;BME280;4358;42.100;25.222;2024-03-29T10:17:39;100135.47;;;25.42;39.70
8641;BME280;4358;42.100;25.222;2024-03-29T10:20:07;100133.59;;;25.43;39.62
8641;BME280;4358;42.100;25.222;2024-03-29T10:22:40;100133.56;;;25.57;40.36
8641;BME280;4358;42.100;25.222;2024-03-29T10:25:09;100139.84;;;25.79;39.00
8641;BME280;4358;42.100;25.222;2024-03-29T10:27:36;100131.81;;;25.71;38.40
8641;BME280;4358;42.100;25.222;2024-03-29T10:30:04;100133.75;;;25.77;38.07
8641;BME280;4358;42.100;25.222;2024-03-29T10:32:31;100113.50;;;25.80;38.28
8641;BME280;4358;42.100;25.222;2024-03-29T10:34:58;100118.88;;;25.73;37.99
8641;BME280;4358;42.100;25.222;2024-03-29T10:37:28;100106.03;;;25.88;38.57
8641;BME280;4358;42.100;25.222;2024-03-29T10:39:58;100107.94;;;26.15;38.01
8641;BME280;4358;42.100;25.222;2024-03-29T10:42:26;100110.22;;;26.40;37.89
8641;BME280;4358;42.100;25.222;2024-03-29T10:44:54;100096.38;;;26.35;37.76
8641;BME280;4358;42.100;25.222;2024-03-29T10:47:23;100090.06;;;26.34;37.34
8641;BME280;4358;42.100;25.222;2024-03-29T10:49:51;100085.09;;;26.38;36.70
8641;BME280;4358;42.100;25.222;2024-03-29T10:52:18;100076.56;;;26.54;37.10
8641;BME280;4358;42.100;25.222;2024-03-29T10:54:45;100075.25;;;26.78;36.92
8641;BME280;4358;42.100;25.222;2024-03-29T10:57:16;100076.25;;;26.70;35.87
8641;BME280;4358;42.100;25.222;2024-03-29T10:59:51;100071.00;;;26.69;36.20
8641;BME280;4358;42.100;25.222;2024-03-29T11:02:30;100062.81;;;26.62;35.62
8641;BME280;4358;42.100;25.222;2024-03-29T11:05:02;100060.75;;;26.71;36.19
8641;BME280;4358;42.100;25.222;2024-03-29T11:07:34;100055.94;;;26.73;34.96
8641;BME280;4358;42.100;25.222;2024-03-29T11:10:05;100047.72;;;27.01;34.46
8641;BME280;4358;42.100;25.222;2024-03-29T11:12:41;100047.72;;;27.27;34.29
8641;BME280;4358;42.100;25.222;2024-03-29T11:15:21;100044.41;;;27.45;34.32
8641;BME280;4358;42.100;25.222;2024-03-29T11:17:49;100047.97;;;27.38;33.37
8641;BME280;4358;42.100;25.222;2024-03-29T11:20:17;100051.97;;;27.36;33.26
8641;BME280;4358;42.100;25.222;2024-03-29T11:22:50;100058.84;;;27.19;33.74
8641;BME280;4358;42.100;25.222;2024-03-29T11:25:17;100056.06;;;26.99;33.13
8641;BME280;4358;42.100;25.222;2024-03-29T11:27:44;100062.59;;;27.05;33.23
8641;BME280;4358;42.100;25.222;2024-03-29T11:30:17;100054.00;;;27.14;33.87
8641;BME280;4358;42.100;25.222;2024-03-29T11:32:45;100048.59;;;27.34;33.38
8641;BME280;4358;42.100;25.222;2024-03-29T11:35:15;100046.09;;;27.26;33.65
8641;BME280;4358;42.100;25.222;2024-03-29T11:37:43;100046.06;;;27.32;33.42
8641;BME280;4358;42.100;25.222;2024-03-29T11:40:13;100031.81;;;27.44;33.29
8641;BME280;4358;42.100;25.222;2024-03-29T11:42:44;100039.00;;;27.77;32.95
8641;BME280;4358;42.100;25.222;2024-03-29T11:45:11;100034.41;;;27.71;32.95
8641;BME280;4358;42.100;25.222;2024-03-29T11:47:40;100035.25;;;27.78;32.84
8641;BME280;4358;42.100;25.222;2024-03-29T11:50:08;100037.31;;;28.03;32.36
8641;BME280;4358;42.100;25.222;2024-03-29T11:52:38;100031.44;;;28.19;32.22
8641;BME280;4358;42.100;25.222;2024-03-29T11:55:05;100035.19;;;28.31;31.77
8641;BME280;4358;42.100;25.222;2024-03-29T11:57:33;100029.69;;;28.38;31.66
8641;BME280;4358;42.100;25.222;2024-03-29T11:59:59;100031.53;;;28.50;31.52
8641;BME280;4358;42.100;25.222;2024-03-29T12:02:26;100027.31;;;28.54;31.69
8641;BME280;4358;42.100;25.222;2024-03-29T12:04:55;100026.94;;;28.38;31.75
8641;BME280;4358;42.100;25.222;2024-03-29T12:07:22;100026.38;;;28.22;31.77
8641;BME280;4358;42.100;25.222;2024-03-29T12:09:49;100017.59;;;28.14;31.78
8641;BME280;4358;42.100;25.222;2024-03-29T12:12:15;100020.53;;;28.12;31.92
8641;BME280;4358;42.100;25.222;2024-03-29T12:14:43;100018.63;;;28.13;31.57
8641;BME280;4358;42.100;25.222;2024-03-29T12:17:10;100022.97;;;28.40;31.33
8641;BME280;4358;42.100;25.222;2024-03-29T12:19:37;100012.34;;;28.63;30.89
8641;BME280;4358;42.100;25.222;2024-03-29T12:22:08;100018.22;;;28.74;30.69
8641;BME280;4358;42.100;25.222;2024-03-29T12:24:36;100014.81;;;28.85;30.87
8641;BME280;4358;42.100;25.222;2024-03-29T12:27:03;100005.19;;;28.82;30.96
8641;BME280;4358;42.100;25.222;2024-03-29T12:29:30;100004.69;;;28.92;30.76
8641;BME280;4358;42.100;25.222;2024-03-29T12:32:00;100002.50;;;29.07;30.74
8641;BME280;4358;42.100;25.222;2024-03-29T12:34:27;100002.59;;;28.94;31.04
8641;BME280;4358;42.100;25.222;2024-03-29T12:36:53;100008.41;;;29.04;30.99
8641;BME280;4358;42.100;25.222;2024-03-29T12:39:22;100004.97;;;28.84;31.36
8641;BME280;4358;42.100;25.222;2024-03-29T12:41:51;100000.50;;;28.89;31.84
8641;BME280;4358;42.100;25.222;2024-03-29T12:44:22;99998.72;;;29.08;31.06
8641;BME280;4358;42.100;25.222;2024-03-29T12:46:49;99994.91;;;28.78;30.96
8641;BME280;4358;42.100;25.222;2024-03-29T12:49:17;99995.75;;;28.78;31.48
8641;BME280;4358;42.100;25.222;2024-03-29T12:51:44;99989.72;;;28.56;30.98
8641;BME280;4358;42.100;25.222;2024-03-29T12:54:11;99997.31;;;28.48;31.58
8641;BME280;4358;42.100;25.222;2024-03-29T12:56:39;99997.72;;;28.51;31.53
8641;BME280;4358;42.100;25.222;2024-03-29T12:59:07;99995.19;;;28.56;31.27
8641;BME280;4358;42.100;25.222;2024-03-29T13:01:34;100002.75;;;28.54;30.72